createdAt,value
2019-05-09T00:01:16.407Z,101427.63
2019-05-09T00:03:44.490Z,101417.99
2019-05-09T00:06:10.608Z,101432.09
2019-05-09T00:08:36.598Z,101426.85
2019-05-09T00:11:03.669Z,101427.39
2019-05-09T00:13:29.898Z,101420.39
2019-05-09T00:15:55.751Z,101423.53
2019-05-09T00:18:23.326Z,101427.05
2019-05-09T00:20:51.395Z,101431.48
2019-05-09T00:23:17.342Z,101432.42
2019-05-09T00:25:43.381Z,101433.34
2019-05-09T00:28:09.472Z,101434.72
2019-05-09T00:30:55.262Z,101436.06
2019-05-09T00:33:23.586Z,101440.50
2019-05-09T00:35:49.470Z,101454.15
2019-05-09T00:38:16.188Z,101451.14
2019-05-09T00:40:55.351Z,101453.39
2019-05-09T00:43:10.021Z,101453.84
2019-05-09T00:45:54.624Z,101456.09
2019-05-09T00:48:23.057Z,101460.08
2019-05-09T00:50:49.115Z,101460.14
2019-05-09T00:53:15.074Z,101459.76
2019-05-09T00:55:40.923Z,101471.80
2019-05-09T00:58:06.783Z,101475.89
2019-05-09T01:00:33.384Z,101475.10
2019-05-09T01:02:59.293Z,101478.67
2019-05-09T01:05:25.176Z,101477.38
2019-05-09T01:07:51.169Z,101494.11
2019-05-09T01:10:17.037Z,101498.93
2019-05-09T01:12:43.558Z,101514.36
2019-05-09T01:15:10.173Z,101523.17
2019-05-09T01:17:36.147Z,101526.68
2019-05-09T01:20:03.459Z,101522.32
2019-05-09T01:22:29.615Z,101512.21
2019-05-09T01:24:55.560Z,101519.70
2019-05-09T01:27:23.318Z,101514.52
2019-05-09T01:29:49.349Z,101527.74
2019-05-09T01:32:23.691Z,101537.05
2019-05-09T01:34:49.782Z,101528.72
2019-05-09T01:37:15.653Z,101523.02
2019-05-09T01:39:44.070Z,101531.30
2019-05-09T01:42:10.115Z,101540.06
2019-05-09T01:44:35.991Z,101531.25
2019-05-09T01:47:03.750Z,101535.59
2019-05-09T01:49:29.778Z,101545.18
2019-05-09T01:51:55.662Z,101539.86
2019-05-09T01:54:23.700Z,101539.39
2019-05-09T01:56:49.854Z,101539.37
2019-05-09T01:59:15.828Z,101541.13
2019-05-09T02:01:43.432Z,101542.89
2019-05-09T02:04:09.522Z,101538.91
2019-05-09T02:06:35.401Z,101549.42
2019-05-09T02:09:03.391Z,101551.16
2019-05-09T02:11:40.136Z,101549.38
2019-05-09T02:13:56.951Z,101551.07
2019-05-09T02:16:39.642Z,101556.32
2019-05-09T02:19:25.682Z,101551.91
2019-05-09T02:21:53.133Z,101552.72
2019-05-09T02:24:19.143Z,101554.92
2019-05-09T02:26:44.992Z,101550.94
2019-05-09T02:29:13.660Z,101559.23
2019-05-09T02:31:39.376Z,101558.77
2019-05-09T02:34:05.323Z,101564.42
2019-05-09T02:36:31.333Z,101563.08
2019-05-09T02:38:59.072Z,101564.38
2019-05-09T02:41:25.019Z,101572.70
2019-05-09T02:43:51.070Z,101570.91
2019-05-09T02:46:21.698Z,101538.22
2019-05-09T02:48:49.457Z,101571.73
2019-05-09T02:51:18.170Z,101569.07
2019-05-09T02:53:43.276Z,101576.08
2019-05-09T02:56:09.531Z,101579.56
2019-05-09T02:58:38.798Z,101573.00
2019-05-09T03:01:21.723Z,101574.34
2019-05-09T03:03:48.345Z,101583.55
2019-05-09T03:06:14.324Z,101583.11
2019-05-09T03:08:40.299Z,101584.41
2019-05-09T03:11:09.373Z,101593.17
2019-05-09T03:13:34.041Z,101597.09
2019-05-09T03:16:01.838Z,101592.64
2019-05-09T03:18:28.753Z,101595.25
2019-05-09T03:20:58.528Z,101602.70
2019-05-09T03:23:24.350Z,101603.99
2019-05-09T03:25:50.379Z,101599.13
2019-05-09T03:28:24.152Z,101611.39
2019-05-09T03:31:01.111Z,101606.92
2019-05-09T03:33:29.536Z,101614.79
2019-05-09T03:35:54.798Z,101621.80
2019-05-09T03:38:20.906Z,101623.50
2019-05-09T03:40:47.695Z,101619.48
2019-05-09T03:43:13.692Z,101622.98
2019-05-09T03:45:58.588Z,101624.70
2019-05-09T03:48:28.934Z,101629.52
2019-05-09T03:50:54.794Z,101635.65
2019-05-09T03:53:20.875Z,101635.15
2019-05-09T03:55:47.547Z,101635.97
2019-05-09T03:58:18.533Z,101647.35
2019-05-09T04:00:47.945Z,101640.25
2019-05-09T04:03:13.808Z,101642.80
2019-05-09T04:05:39.771Z,101648.50
2019-05-09T04:08:20.834Z,101647.16
2019-05-09T04:10:50.697Z,101661.17
2019-05-09T04:13:17.982Z,101667.22
2019-05-09T04:15:44.258Z,101675.92
2019-05-09T04:18:10.221Z,101679.77
2019-05-09T04:20:37.715Z,101682.70
2019-05-09T04:23:03.845Z,101679.98
2019-05-09T04:25:31.630Z,101678.56
2019-05-09T04:27:58.316Z,101675.80
2019-05-09T04:30:24.377Z,101669.09
2019-05-09T04:32:50.237Z,101666.80
2019-05-09T04:35:17.524Z,101680.80
2019-05-09T04:37:43.583Z,101670.51
2019-05-09T04:40:09.723Z,101677.90
2019-05-09T04:42:43.018Z,101694.06
2019-05-09T04:45:22.291Z,101691.33
2019-05-09T04:47:48.186Z,101693.43
2019-05-09T04:50:15.371Z,101693.73
2019-05-09T04:52:41.993Z,101696.24
2019-05-09T04:55:08.765Z,101685.97
2019-05-09T04:57:34.768Z,101699.53
2019-05-09T05:00:00.806Z,101690.61
2019-05-09T05:02:34.455Z,101696.20
2019-05-09T05:05:00.348Z,101695.22
2019-05-09T05:07:28.541Z,101692.94
2019-05-09T05:09:54.019Z,101693.71
2019-05-09T05:12:20.013Z,101699.77
2019-05-09T05:14:47.576Z,101705.47
2019-05-09T05:17:13.747Z,101708.89
2019-05-09T05:19:39.601Z,101703.67
2019-05-09T05:22:07.591Z,101707.94
2019-05-09T05:24:38.040Z,101710.47
2019-05-09T05:27:03.159Z,101715.65
2019-05-09T05:29:29.192Z,101728.33
2019-05-09T05:31:57.506Z,101723.41
2019-05-09T05:34:31.092Z,101728.55
2019-05-09T05:36:58.228Z,101730.68
2019-05-09T05:39:24.129Z,101734.09
2019-05-09T05:41:50.174Z,101738.50
2019-05-09T05:44:17.813Z,101745.94
2019-05-09T05:46:50.419Z,101741.04
2019-05-09T05:49:15.659Z,101737.88
2019-05-09T05:51:50.295Z,101742.58
2019-05-09T05:54:18.130Z,101737.20
2019-05-09T05:56:44.198Z,101742.86
2019-05-09T05:59:10.052Z,101745.83
2019-05-09T06:01:38.176Z,101750.65
2019-05-09T06:04:03.768Z,101755.35
2019-05-09T06:06:32.829Z,101752.66
2019-05-09T06:08:58.047Z,101753.06
2019-05-09T06:11:24.011Z,101748.13
2019-05-09T06:13:56.968Z,101759.05
2019-05-09T06:16:19.138Z,101751.94
2019-05-09T06:18:47.530Z,101755.39
2019-05-09T06:21:13.313Z,101759.28
2019-05-09T06:23:39.384Z,101763.58
2019-05-09T06:26:09.421Z,101770.08
2019-05-09T06:28:33.029Z,101765.55
2019-05-09T06:30:59.115Z,101774.20
2019-05-09T06:33:25.078Z,101781.52
2019-05-09T06:35:50.942Z,101784.48
2019-05-09T06:38:18.712Z,101788.28
2019-05-09T06:40:44.695Z,101787.23
2019-05-09T06:43:18.331Z,101794.13
2019-05-09T06:46:01.387Z,101790.42
2019-05-09T06:48:28.396Z,101793.34
2019-05-09T06:50:54.359Z,101795.73
2019-05-09T06:53:20.498Z,101799.09
2019-05-09T06:55:47.584Z,101805.98
2019-05-09T06:58:32.996Z,101804.00
2019-05-09T07:01:01.007Z,101806.91
2019-05-09T07:03:48.039Z,101809.83
2019-05-09T07:06:17.766Z,101806.20
2019-05-09T07:09:00.410Z,101805.08
2019-05-09T07:11:27.575Z,101811.53
2019-05-09T07:13:53.442Z,101812.67
2019-05-09T07:16:19.543Z,101819.13
2019-05-09T07:18:48.485Z,101818.53
2019-05-09T07:21:14.262Z,101823.25
2019-05-09T07:23:40.490Z,101827.13
2019-05-09T07:26:10.881Z,101831.41
2019-05-09T07:28:37.667Z,101840.95
2019-05-09T07:31:07.724Z,101842.63
2019-05-09T07:33:41.618Z,101840.27
2019-05-09T07:36:08.535Z,101855.72
2019-05-09T07:38:34.539Z,101851.73
2019-05-09T07:41:00.568Z,101863.34
2019-05-09T07:43:28.216Z,101871.02
2019-05-09T07:46:03.968Z,101858.72
2019-05-09T07:48:30.176Z,101873.77
2019-05-09T07:50:59.559Z,101871.20
2019-05-09T07:53:23.817Z,101884.19
2019-05-09T07:55:49.771Z,101874.06
2019-05-09T07:58:18.430Z,101881.68
2019-05-09T08:00:43.285Z,101882.58
2019-05-09T08:03:13.086Z,101889.12
2019-05-09T08:05:38.516Z,101890.39
2019-05-09T08:08:08.017Z,101890.25
2019-05-09T08:10:34.225Z,101891.08
2019-05-09T08:13:00.193Z,101895.91
2019-05-09T08:15:28.029Z,101892.27
2019-05-09T08:17:53.969Z,101888.72
2019-05-09T08:20:19.830Z,101890.45
2019-05-09T08:22:52.237Z,101898.23
2019-05-09T08:25:13.699Z,101904.33
2019-05-09T08:27:39.539Z,101901.48
2019-05-09T08:30:07.965Z,101904.34
2019-05-09T08:32:33.807Z,101904.59
2019-05-09T08:34:59.670Z,101909.70
2019-05-09T08:37:28.067Z,101914.00
2019-05-09T08:39:53.330Z,101923.16
2019-05-09T08:42:20.094Z,101922.95
2019-05-09T08:44:48.102Z,101919.70
2019-05-09T08:47:14.143Z,101931.77
2019-05-09T08:49:46.510Z,101923.13
2019-05-09T08:52:16.378Z,101921.09
2019-05-09T08:54:43.623Z,101923.90
2019-05-09T08:57:09.681Z,101922.41
2019-05-09T08:59:38.068Z,101925.40
2019-05-09T09:02:14.946Z,101927.42
2019-05-09T09:04:33.096Z,101927.20
2019-05-09T09:06:58.931Z,101926.44
2019-05-09T09:09:25.050Z,101923.94
2019-05-09T09:11:50.918Z,101925.00
2019-05-09T09:14:18.481Z,101932.17
2019-05-09T09:16:44.559Z,101920.84
2019-05-09T09:19:11.749Z,101928.87
2019-05-09T09:21:38.869Z,101935.56
2019-05-09T09:24:05.124Z,101927.62
2019-05-09T09:26:31.097Z,101934.42
2019-05-09T09:28:57.793Z,101927.97
2019-05-09T09:31:23.969Z,101929.62
2019-05-09T09:33:49.831Z,101934.17
2019-05-09T09:36:17.770Z,101932.42
2019-05-09T09:38:43.480Z,101931.79
2019-05-09T09:41:09.343Z,101930.80
2019-05-09T09:43:35.256Z,101938.18
2019-05-09T09:46:10.440Z,101939.85
2019-05-09T09:48:29.065Z,101933.81
2019-05-09T09:50:55.030Z,101937.96
2019-05-09T09:53:21.188Z,101942.05
2019-05-09T09:55:47.599Z,101932.37
2019-05-09T09:58:13.702Z,101932.74
2019-05-09T10:00:58.538Z,101936.95
2019-05-09T10:03:24.662Z,101937.66
2019-05-09T10:05:50.874Z,101940.61
2019-05-09T10:08:18.119Z,101946.88
2019-05-09T10:10:44.207Z,101955.53
2019-05-09T10:13:10.909Z,101963.78
2019-05-09T10:15:44.537Z,101964.98
2019-05-09T10:18:28.733Z,101975.16
2019-05-09T10:21:13.191Z,101979.52
2019-05-09T10:23:39.142Z,101978.74
2019-05-09T10:26:05.124Z,101987.36
2019-05-09T10:28:31.188Z,101977.55
2019-05-09T10:30:57.786Z,101988.63
2019-05-09T10:33:23.803Z,101980.78
2019-05-09T10:35:49.961Z,101977.38
2019-05-09T10:38:18.188Z,101985.39
2019-05-09T10:40:43.485Z,101975.67
2019-05-09T10:43:34.659Z,101972.85
2019-05-09T10:46:09.503Z,101975.45
2019-05-09T10:48:35.692Z,101982.92
2019-05-09T10:51:05.142Z,101974.75
2019-05-09T10:53:29.345Z,101979.27
2019-05-09T10:55:55.311Z,101987.21
2019-05-09T10:58:23.806Z,101983.75
2019-05-09T11:00:49.138Z,101983.68
2019-05-09T11:03:15.014Z,101968.50
2019-05-09T11:05:41.104Z,101974.28
2019-05-09T11:08:08.193Z,101977.50
2019-05-09T11:10:34.253Z,101982.97
2019-05-09T11:13:00.313Z,101979.34
2019-05-09T11:15:26.155Z,101984.84
2019-05-09T11:17:52.028Z,101986.95
2019-05-09T11:20:19.443Z,101980.71
2019-05-09T11:22:45.537Z,101986.86
2019-05-09T11:25:11.520Z,101985.38
2019-05-09T11:27:38.920Z,101992.22
2019-05-09T11:30:05.087Z,101989.58
2019-05-09T11:32:32.851Z,101992.60
2019-05-09T11:34:58.987Z,101986.98
2019-05-09T11:37:24.940Z,101993.06
2019-05-09T11:39:50.820Z,101996.86
2019-05-09T11:42:17.793Z,101983.01
2019-05-09T11:44:43.760Z,101997.20
2019-05-09T11:47:27.079Z,101985.84
2019-05-09T11:49:39.025Z,101987.91
2019-05-09T11:52:05.191Z,101990.01
2019-05-09T11:54:31.097Z,101979.05
2019-05-09T11:56:57.700Z,101987.19
2019-05-09T11:59:23.599Z,101983.06
2019-05-09T12:01:50.708Z,101988.11
2019-05-09T12:04:18.813Z,101987.56
2019-05-09T12:06:44.801Z,101985.20
2019-05-09T12:09:14.113Z,101985.84
2019-05-09T12:11:43.432Z,101981.08
2019-05-09T12:14:08.728Z,101984.48
2019-05-09T12:16:33.957Z,101987.64
2019-05-09T12:18:59.971Z,101988.02
2019-05-09T12:21:28.210Z,101987.30
2019-05-09T12:23:54.751Z,101989.60
2019-05-09T12:26:20.801Z,101980.84
2019-05-09T12:28:48.453Z,101982.27
2019-05-09T12:31:14.438Z,101977.78
2019-05-09T12:33:40.554Z,101978.80
2019-05-09T12:36:09.069Z,101972.94
2019-05-09T12:38:34.183Z,101974.41
2019-05-09T12:41:00.704Z,101972.40
2019-05-09T12:43:28.340Z,101967.62
2019-05-09T12:45:54.256Z,101963.21
2019-05-09T12:48:20.385Z,101962.47
2019-05-09T12:50:48.671Z,101960.35
2019-05-09T12:53:13.929Z,101960.50
2019-05-09T12:55:39.946Z,101967.88
2019-05-09T12:58:09.752Z,101962.24
2019-05-09T13:00:35.500Z,101959.84
2019-05-09T13:03:01.601Z,101962.55
2019-05-09T13:05:27.535Z,101966.81
2019-05-09T13:07:53.391Z,101964.53
2019-05-09T13:10:19.689Z,101957.73
2019-05-09T13:12:48.052Z,101959.77
2019-05-09T13:15:13.413Z,101959.86
2019-05-09T13:17:41.381Z,101951.63
2019-05-09T13:20:09.200Z,101950.45
2019-05-09T13:22:37.055Z,101950.96
2019-05-09T13:25:04.567Z,101945.31
2019-05-09T13:27:30.445Z,101943.27
2019-05-09T13:29:56.422Z,101942.13
2019-05-09T13:32:22.623Z,101943.84
2019-05-09T13:34:48.840Z,101941.94
2019-05-09T13:37:14.862Z,101930.12
2019-05-09T13:39:41.217Z,101921.78
2019-05-09T13:42:08.194Z,101910.34
2019-05-09T13:44:34.227Z,101917.94
2019-05-09T13:47:00.276Z,101912.00
2019-05-09T13:49:28.451Z,101909.78
2019-05-09T13:52:00.311Z,101906.91
2019-05-09T13:54:21.762Z,101909.33
2019-05-09T13:56:55.002Z,101906.64
2019-05-09T13:59:15.557Z,101879.34
2019-05-09T14:01:41.618Z,101906.45
2019-05-09T14:04:08.047Z,101902.88
2019-05-09T14:06:34.115Z,101898.84
2019-05-09T14:09:00.149Z,101890.78
2019-05-09T14:11:28.881Z,101887.81
2019-05-09T14:13:53.780Z,101877.44
2019-05-09T14:16:22.336Z,101882.83
2019-05-09T14:18:48.587Z,101883.29
2019-05-09T14:21:14.683Z,101887.14
2019-05-09T14:23:51.416Z,101874.84
2019-05-09T14:26:09.412Z,101873.22
2019-05-09T14:28:35.489Z,101873.41
2019-05-09T14:31:01.518Z,101877.72
2019-05-09T14:33:29.502Z,101869.78
2019-05-09T14:35:55.078Z,101874.09
2019-05-09T14:38:21.130Z,101866.91
2019-05-09T14:40:47.492Z,101865.16
2019-05-09T14:43:13.613Z,101864.31
2019-05-09T14:45:39.724Z,101864.69
2019-05-09T14:48:07.949Z,101865.75
2019-05-09T14:50:33.358Z,101869.59
2019-05-09T14:52:59.325Z,101859.03
2019-05-09T14:55:25.300Z,101859.41
2019-05-09T14:57:51.207Z,101854.22
2019-05-09T15:00:18.825Z,101849.03
2019-05-09T15:02:44.895Z,101848.84
2019-05-09T15:05:10.875Z,101847.31
2019-05-09T15:07:38.910Z,101848.53
2019-05-09T15:10:04.959Z,101849.45
2019-05-09T15:12:30.956Z,101843.36
2019-05-09T15:14:57.757Z,101843.44
2019-05-09T15:17:23.738Z,101841.99
2019-05-09T15:19:59.978Z,101850.09
2019-05-09T15:22:17.566Z,101851.02
2019-05-09T15:24:43.477Z,101844.66
2019-05-09T15:27:09.458Z,101844.75
2019-05-09T15:29:35.483Z,101848.02
2019-05-09T15:32:06.007Z,101846.08
2019-05-09T15:34:29.239Z,101840.42
2019-05-09T15:36:57.978Z,101844.91
2019-05-09T15:39:23.146Z,101842.22
2019-05-09T15:41:49.050Z,101842.69
2019-05-09T15:44:15.203Z,101839.16
2019-05-09T15:46:43.039Z,101837.91
2019-05-09T15:49:08.916Z,101832.39
2019-05-09T15:51:34.895Z,101828.55
2019-05-09T15:54:00.928Z,101825.08
2019-05-09T15:56:28.803Z,101822.10
2019-05-09T15:58:54.705Z,101830.04
2019-05-09T16:01:20.667Z,101824.94
2019-05-09T16:03:48.628Z,101813.59
2019-05-09T16:06:14.397Z,101820.94
2019-05-09T16:08:40.250Z,101821.20
2019-05-09T16:11:08.548Z,101817.06
2019-05-09T16:13:34.031Z,101809.27
2019-05-09T16:15:59.895Z,101813.06
2019-05-09T16:18:28.624Z,101809.34
2019-05-09T16:20:53.731Z,101798.58
2019-05-09T16:23:19.699Z,101803.96
2019-05-09T16:25:47.407Z,101793.75
2019-05-09T16:28:13.573Z,101796.30
2019-05-09T16:30:39.439Z,101792.16
2019-05-09T16:33:07.918Z,101796.27
2019-05-09T16:35:33.188Z,101793.75
2019-05-09T16:38:06.457Z,101788.23
2019-05-09T16:40:27.950Z,101783.99
2019-05-09T16:42:54.031Z,101780.06
2019-05-09T16:45:19.983Z,101788.18
2019-05-09T16:47:48.260Z,101789.11
2019-05-09T16:50:14.360Z,101789.61
2019-05-09T16:52:43.534Z,101787.09
2019-05-09T16:55:09.908Z,101786.37
2019-05-09T16:57:37.669Z,101784.83
2019-05-09T17:00:10.122Z,101784.66
2019-05-09T17:02:38.149Z,101779.71
2019-05-09T17:05:04.608Z,101780.50
2019-05-09T17:07:30.582Z,101784.30
2019-05-09T17:09:57.788Z,101794.79
2019-05-09T17:12:24.005Z,101795.03
2019-05-09T17:14:49.899Z,101782.73
2019-05-09T17:17:17.871Z,101785.73
2019-05-09T17:19:43.771Z,101788.66
2019-05-09T17:22:11.608Z,101789.33
2019-05-09T17:24:38.431Z,101788.66
2019-05-09T17:27:04.558Z,101789.61
2019-05-09T17:29:30.558Z,101785.10
2019-05-09T17:31:58.462Z,101781.70
2019-05-09T17:34:24.470Z,101782.84
2019-05-09T17:36:50.423Z,101781.80
2019-05-09T17:39:18.494Z,101785.66
2019-05-09T17:41:44.357Z,101786.68
2019-05-09T17:44:10.317Z,101784.54
2019-05-09T17:46:38.502Z,101780.27
2019-05-09T17:49:04.153Z,101778.91
2019-05-09T17:51:34.063Z,101779.73
2019-05-09T17:53:58.471Z,101778.61
2019-05-09T17:56:24.530Z,101777.56
2019-05-09T17:58:50.527Z,101775.25
2019-05-09T18:01:18.063Z,101777.41
2019-05-09T18:03:44.203Z,101778.56
2019-05-09T18:06:10.084Z,101779.41
2019-05-09T18:08:37.706Z,101772.49
2019-05-09T18:11:03.837Z,101773.69
2019-05-09T18:13:31.569Z,101774.66
2019-05-09T18:15:57.392Z,101769.66
2019-05-09T18:18:23.423Z,101775.07
2019-05-09T18:20:49.392Z,101778.13
2019-05-09T18:23:17.474Z,101775.14
2019-05-09T18:25:43.155Z,101773.20
2019-05-09T18:28:09.121Z,101770.38
2019-05-09T18:30:35.101Z,101770.66
2019-05-09T18:33:08.691Z,101768.81
2019-05-09T18:35:34.745Z,101772.59
2019-05-09T18:38:00.743Z,101766.64
2019-05-09T18:40:28.162Z,101768.23
2019-05-09T18:42:54.204Z,101761.44
2019-05-09T18:45:21.834Z,101775.30
2019-05-09T18:47:48.247Z,101767.09
2019-05-09T18:50:14.589Z,101767.75
2019-05-09T18:52:40.551Z,101772.45
2019-05-09T18:55:10.546Z,101773.07
2019-05-09T18:57:36.467Z,101771.11
2019-05-09T19:00:06.722Z,101769.03
2019-05-09T19:02:32.922Z,101766.22
2019-05-09T19:04:58.767Z,101772.50
2019-05-09T19:07:26.912Z,101765.95
2019-05-09T19:09:52.889Z,101757.27
2019-05-09T19:12:18.828Z,101759.64
2019-05-09T19:14:48.402Z,101754.04
2019-05-09T19:17:31.088Z,101753.28
2019-05-09T19:20:07.486Z,101751.63
2019-05-09T19:22:33.439Z,101754.02
2019-05-09T19:24:59.291Z,101749.53
2019-05-09T19:27:25.164Z,101749.84
2019-05-09T19:29:51.188Z,101751.05
2019-05-09T19:32:17.011Z,101738.52
2019-05-09T19:34:42.982Z,101730.58
2019-05-09T19:37:09.036Z,101748.27
2019-05-09T19:39:34.900Z,101732.78
2019-05-09T19:42:00.865Z,101729.75
2019-05-09T19:44:26.914Z,101733.53
2019-05-09T19:46:54.680Z,101728.33
2019-05-09T19:49:20.676Z,101720.97
2019-05-09T19:51:46.797Z,101724.45
2019-05-09T19:54:12.661Z,101728.56
2019-05-09T19:56:39.467Z,101725.84
2019-05-09T19:59:07.851Z,101724.45
2019-05-09T20:01:33.211Z,101722.76
2019-05-09T20:03:59.292Z,101725.08
2019-05-09T20:06:25.305Z,101719.39
2019-05-09T20:08:51.179Z,101715.52
2019-05-09T20:11:21.611Z,101718.77
2019-05-09T20:13:58.136Z,101720.22
2019-05-09T20:16:24.694Z,101721.12
2019-05-09T20:18:50.526Z,101713.25
2019-05-09T20:21:16.607Z,101725.44
2019-05-09T20:23:42.623Z,101717.13
2019-05-09T20:26:08.539Z,101709.09
2019-05-09T20:28:34.594Z,101713.59
2019-05-09T20:31:00.569Z,101714.18
2019-05-09T20:33:26.450Z,101725.22
2019-05-09T20:35:52.399Z,101712.91
2019-05-09T20:38:18.371Z,101716.90
2019-05-09T20:40:44.225Z,101722.10
2019-05-09T20:43:10.346Z,101720.83
2019-05-09T20:45:36.220Z,101722.10
2019-05-09T20:48:02.375Z,101722.89
2019-05-09T20:50:28.392Z,101730.82
2019-05-09T20:53:08.426Z,101722.78
2019-05-09T20:55:21.961Z,101728.87
2019-05-09T20:57:51.389Z,101730.09
2019-05-09T21:00:15.915Z,101722.45
2019-05-09T21:02:41.765Z,101721.44
2019-05-09T21:05:07.873Z,101715.06
2019-05-09T21:07:33.739Z,101715.40
2019-05-09T21:09:59.594Z,101719.39
2019-05-09T21:12:25.569Z,101722.00
2019-05-09T21:14:51.450Z,101719.81
2019-05-09T21:17:17.329Z,101719.39
2019-05-09T21:19:43.352Z,101727.91
2019-05-09T21:22:09.358Z,101708.92
2019-05-09T21:24:35.216Z,101715.17
2019-05-09T21:27:01.329Z,101715.17
2019-05-09T21:29:27.204Z,101721.44
2019-05-09T21:31:53.065Z,101713.02
2019-05-09T21:34:19.048Z,101706.38
2019-05-09T21:36:45.095Z,101705.47
2019-05-09T21:39:10.905Z,101703.27
2019-05-09T21:41:36.865Z,101697.06
2019-05-09T21:44:02.868Z,101699.33
2019-05-09T21:46:29.631Z,101711.41
2019-05-09T21:48:55.890Z,101713.73
2019-05-09T21:51:21.844Z,101703.55
2019-05-09T21:53:47.806Z,101707.59
2019-05-09T21:56:13.931Z,101707.20
2019-05-09T21:58:39.775Z,101707.66
2019-05-09T22:01:07.537Z,101705.10
2019-05-09T22:03:33.518Z,101698.96
2019-05-09T22:05:59.571Z,101706.55
2019-05-09T22:08:25.427Z,101706.15
2019-05-09T22:10:51.495Z,101695.63
2019-05-09T22:13:17.342Z,101709.94
2019-05-09T22:15:43.308Z,101704.72
2019-05-09T22:18:09.461Z,101703.11
2019-05-09T22:20:35.470Z,101704.13
2019-05-09T22:23:01.446Z,101704.66
2019-05-09T22:25:27.540Z,101703.83
2019-05-09T22:27:53.477Z,101697.69
2019-05-09T22:30:19.659Z,101704.39
2019-05-09T22:32:45.729Z,101698.28
2019-05-09T22:35:11.980Z,101701.05
2019-05-09T22:37:37.829Z,101700.67
2019-05-09T22:40:04.743Z,101691.97
2019-05-09T22:42:30.598Z,101699.56
2019-05-09T22:44:56.549Z,101700.12
2019-05-09T22:47:22.510Z,101699.78
2019-05-09T22:49:52.203Z,101687.53
2019-05-09T22:52:16.171Z,101693.80
2019-05-09T22:54:42.267Z,101689.07
2019-05-09T22:57:08.135Z,101690.02
2019-05-09T22:59:34.043Z,101684.81
2019-05-09T23:02:06.299Z,101687.13
2019-05-09T23:04:27.845Z,101688.95
2019-05-09T23:06:53.912Z,101689.94
2019-05-09T23:09:20.094Z,101687.39
2019-05-09T23:11:46.056Z,101677.27
2019-05-09T23:14:12.025Z,101677.77
2019-05-09T23:16:39.395Z,101672.55
2019-05-09T23:19:05.269Z,101677.53
2019-05-09T23:21:31.116Z,101680.75
2019-05-09T23:24:01.996Z,101674.20
2019-05-09T23:26:28.070Z,101672.98
2019-05-09T23:28:53.952Z,101666.88
2019-05-09T23:31:27.944Z,101670.43
2019-05-09T23:33:53.802Z,101661.19
2019-05-09T23:36:19.754Z,101663.10
2019-05-09T23:39:04.273Z,101662.67
2019-05-09T23:41:30.232Z,101664.09
2019-05-09T23:43:56.214Z,101656.23
2019-05-09T23:46:22.455Z,101657.61
2019-05-09T23:48:48.315Z,101655.00
2019-05-09T23:51:14.159Z,101658.54
2019-05-09T23:53:40.306Z,101652.35
2019-05-09T23:56:24.719Z,101648.87
2019-05-09T23:59:09.106Z,101649.84
